Baileyton, Alabama
Current Conditions -  °F | °C
As of 10:35 AM on Saturday 22 Nov 2014 (Local Time) from KCMD Reporting Station
Clear Clear  
Wind Chill: 56°   Ceiling: Unl
Heat Index: 56°   Visibility: 10mi
Dew Point: 35°   Wind: 9mph
Humidity: 45%   Direction: 150°SSE
Pressure: 30.35"   Gusts: NA
Location:  34.26°N, 86.61°W
Report Text: KCMD 221635Z AUTO 15008KT 080V190 10SM CLR 13/02 A3035 RMK AO2 T01320016
Loading
Personal Weather Stations






























Interactive Weather Map New forecast layout! Learn more

10-Day Weather Forecast

Advertisements
Track Severe Weather on mobile